sensor_id;sensor_type;location;lat;lon;timestamp;P1;durP1;ratioP1;P2;durP2;ratioP2
12429;SDS011;6279;42.192;24.326;2022-09-02T00:01:26;19.90;;;14.57;;
12429;SDS011;6279;42.192;24.326;2022-09-02T00:03:57;20.77;;;15.93;;
12429;SDS011;6279;42.192;24.326;2022-09-02T00:06:25;18.13;;;15.87;;
12429;SDS011;6279;42.192;24.326;2022-09-02T00:08:51;18.43;;;15.33;;
12429;SDS011;6279;42.192;24.326;2022-09-02T00:11:18;17.57;;;15.87;;
12429;SDS011;6279;42.192;24.326;2022-09-02T00:13:49;20.97;;;16.57;;
12429;SDS011;6279;42.192;24.326;2022-09-02T00:16:15;20.30;;;15.03;;
12429;SDS011;6279;42.192;24.326;2022-09-02T00:18:41;15.73;;;14.10;;
12429;SDS011;6279;42.192;24.326;2022-09-02T00:21:08;18.60;;;14.80;;
12429;SDS011;6279;42.192;24.326;2022-09-02T00:23:36;17.73;;;12.40;;
12429;SDS011;6279;42.192;24.326;2022-09-02T00:26:02;17.80;;;12.77;;
12429;SDS011;6279;42.192;24.326;2022-09-02T00:28:28;14.27;;;12.03;;
12429;SDS011;6279;42.192;24.326;2022-09-02T00:30:53;14.80;;;12.70;;
12429;SDS011;6279;42.192;24.326;2022-09-02T00:33:19;21.47;;;12.37;;
12429;SDS011;6279;42.192;24.326;2022-09-02T00:35:44;15.43;;;11.37;;
12429;SDS011;6279;42.192;24.326;2022-09-02T00:38:10;17.23;;;11.80;;
12429;SDS011;6279;42.192;24.326;2022-09-02T00:40:36;13.47;;;10.70;;
12429;SDS011;6279;42.192;24.326;2022-09-02T00:43:06;14.30;;;10.43;;
12429;SDS011;6279;42.192;24.326;2022-09-02T00:45:33;11.27;;;10.10;;
12429;SDS011;6279;42.192;24.326;2022-09-02T00:47:59;13.37;;;9.90;;
12429;SDS011;6279;42.192;24.326;2022-09-02T00:50:26;13.00;;;10.60;;
12429;SDS011;6279;42.192;24.326;2022-09-02T00:53:03;11.70;;;9.67;;
12429;SDS011;6279;42.192;24.326;2022-09-02T00:55:42;11.90;;;9.50;;
12429;SDS011;6279;42.192;24.326;2022-09-02T00:58:15;15.73;;;10.57;;
12429;SDS011;6279;42.192;24.326;2022-09-02T01:00:45;13.73;;;9.67;;
12429;SDS011;6279;42.192;24.326;2022-09-02T01:03:19;10.40;;;9.10;;
12429;SDS011;6279;42.192;24.326;2022-09-02T01:05:46;15.17;;;10.83;;
12429;SDS011;6279;42.192;24.326;2022-09-02T01:08:15;16.33;;;10.70;;
12429;SDS011;6279;42.192;24.326;2022-09-02T01:10:44;17.00;;;10.50;;
12429;SDS011;6279;42.192;24.326;2022-09-02T01:13:13;17.33;;;10.73;;
12429;SDS011;6279;42.192;24.326;2022-09-02T01:15:46;16.63;;;11.73;;
12429;SDS011;6279;42.192;24.326;2022-09-02T01:18:17;16.33;;;11.63;;
12429;SDS011;6279;42.192;24.326;2022-09-02T01:20:44;17.20;;;11.27;;
12429;SDS011;6279;42.192;24.326;2022-09-02T01:23:11;19.20;;;12.53;;
12429;SDS011;6279;42.192;24.326;2022-09-02T01:25:38;14.37;;;11.93;;
12429;SDS011;6279;42.192;24.326;2022-09-02T01:28:07;17.77;;;12.33;;
12429;SDS011;6279;42.192;24.326;2022-09-02T01:30:37;18.83;;;12.73;;
12429;SDS011;6279;42.192;24.326;2022-09-02T01:33:05;19.20;;;12.27;;
12429;SDS011;6279;42.192;24.326;2022-09-02T01:35:30;15.57;;;13.13;;
12429;SDS011;6279;42.192;24.326;2022-09-02T01:37:57;17.30;;;12.80;;
12429;SDS011;6279;42.192;24.326;2022-09-02T01:40:25;18.87;;;13.03;;
12429;SDS011;6279;42.192;24.326;2022-09-02T01:42:55;16.73;;;13.30;;
12429;SDS011;6279;42.192;24.326;2022-09-02T01:45:27;15.03;;;13.43;;
12429;SDS011;6279;42.192;24.326;2022-09-02T01:47:54;19.13;;;14.27;;
12429;SDS011;6279;42.192;24.326;2022-09-02T01:50:20;17.80;;;13.60;;
12429;SDS011;6279;42.192;24.326;2022-09-02T01:52:46;18.40;;;14.70;;
12429;SDS011;6279;42.192;24.326;2022-09-02T01:55:11;17.47;;;14.10;;
12429;SDS011;6279;42.192;24.326;2022-09-02T01:57:37;21.83;;;14.33;;
12429;SDS011;6279;42.192;24.326;2022-09-02T02:00:04;23.00;;;15.00;;
12429;SDS011;6279;42.192;24.326;2022-09-02T02:02:32;18.43;;;14.90;;
12429;SDS011;6279;42.192;24.326;2022-09-02T02:04:58;17.87;;;14.57;;
12429;SDS011;6279;42.192;24.326;2022-09-02T02:07:23;17.60;;;14.60;;
12429;SDS011;6279;42.192;24.326;2022-09-02T02:09:50;18.17;;;15.23;;
12429;SDS011;6279;42.192;24.326;2022-09-02T02:12:16;16.23;;;14.50;;
12429;SDS011;6279;42.192;24.326;2022-09-02T02:14:42;17.90;;;14.97;;
12429;SDS011;6279;42.192;24.326;2022-09-02T02:17:08;22.57;;;15.83;;
12429;SDS011;6279;42.192;24.326;2022-09-02T02:19:34;18.67;;;15.43;;
12429;SDS011;6279;42.192;24.326;2022-09-02T02:21:59;21.63;;;15.17;;
12429;SDS011;6279;42.192;24.326;2022-09-02T02:24:25;16.90;;;15.20;;
12429;SDS011;6279;42.192;24.326;2022-09-02T02:26:50;22.20;;;15.67;;
12429;SDS011;6279;42.192;24.326;2022-09-02T02:29:16;19.93;;;15.93;;
12429;SDS011;6279;42.192;24.326;2022-09-02T02:31:42;19.37;;;16.33;;
12429;SDS011;6279;42.192;24.326;2022-09-02T02:34:09;18.43;;;15.20;;
12429;SDS011;6279;42.192;24.326;2022-09-02T02:36:36;23.10;;;16.07;;
12429;SDS011;6279;42.192;24.326;2022-09-02T02:39:03;17.60;;;15.77;;
12429;SDS011;6279;42.192;24.326;2022-09-02T02:41:31;19.53;;;17.53;;
12429;SDS011;6279;42.192;24.326;2022-09-02T02:43:57;18.87;;;16.60;;
12429;SDS011;6279;42.192;24.326;2022-09-02T02:46:22;22.33;;;18.07;;
12429;SDS011;6279;42.192;24.326;2022-09-02T02:48:48;24.13;;;16.57;;
12429;SDS011;6279;42.192;24.326;2022-09-02T02:51:13;24.00;;;17.60;;
12429;SDS011;6279;42.192;24.326;2022-09-02T02:53:39;21.30;;;18.70;;
12429;SDS011;6279;42.192;24.326;2022-09-02T02:56:04;24.57;;;18.27;;
12429;SDS011;6279;42.192;24.326;2022-09-02T02:58:30;21.33;;;16.40;;
12429;SDS011;6279;42.192;24.326;2022-09-02T03:00:56;24.13;;;17.07;;
12429;SDS011;6279;42.192;24.326;2022-09-02T03:03:22;18.07;;;15.97;;
12429;SDS011;6279;42.192;24.326;2022-09-02T03:05:48;19.00;;;15.80;;
12429;SDS011;6279;42.192;24.326;2022-09-02T03:08:15;18.03;;;16.23;;
12429;SDS011;6279;42.192;24.326;2022-09-02T03:10:45;22.87;;;16.63;;
12429;SDS011;6279;42.192;24.326;2022-09-02T03:13:11;19.13;;;16.27;;
12429;SDS011;6279;42.192;24.326;2022-09-02T03:15:39;21.97;;;17.37;;
12429;SDS011;6279;42.192;24.326;2022-09-02T03:18:05;18.90;;;16.90;;
12429;SDS011;6279;42.192;24.326;2022-09-02T03:20:30;21.90;;;17.10;;
12429;SDS011;6279;42.192;24.326;2022-09-02T03:22:57;22.00;;;17.20;;
12429;SDS011;6279;42.192;24.326;2022-09-02T03:25:23;22.30;;;17.93;;
12429;SDS011;6279;42.192;24.326;2022-09-02T03:27:50;20.50;;;17.77;;
12429;SDS011;6279;42.192;24.326;2022-09-02T03:30:26;23.03;;;16.93;;
12429;SDS011;6279;42.192;24.326;2022-09-02T03:32:54;19.63;;;17.53;;
12429;SDS011;6279;42.192;24.326;2022-09-02T03:35:21;21.43;;;17.50;;
12429;SDS011;6279;42.192;24.326;2022-09-02T03:37:48;24.03;;;19.20;;
12429;SDS011;6279;42.192;24.326;2022-09-02T03:40:16;22.13;;;17.50;;
12429;SDS011;6279;42.192;24.326;2022-09-02T03:42:44;26.83;;;18.13;;
12429;SDS011;6279;42.192;24.326;2022-09-02T03:45:09;20.67;;;18.40;;
12429;SDS011;6279;42.192;24.326;2022-09-02T03:47:35;20.83;;;17.70;;
12429;SDS011;6279;42.192;24.326;2022-09-02T03:50:04;24.27;;;19.17;;
12429;SDS011;6279;42.192;24.326;2022-09-02T03:52:30;24.60;;;18.83;;
12429;SDS011;6279;42.192;24.326;2022-09-02T03:54:56;20.43;;;18.33;;
12429;SDS011;6279;42.192;24.326;2022-09-02T03:57:21;23.43;;;17.60;;
12429;SDS011;6279;42.192;24.326;2022-09-02T03:59:49;22.90;;;18.10;;
12429;SDS011;6279;42.192;24.326;2022-09-02T04:02:15;19.47;;;17.50;;
12429;SDS011;6279;42.192;24.326;2022-09-02T04:04:40;19.00;;;17.07;;
12429;SDS011;6279;42.192;24.326;2022-09-02T04:07:06;20.23;;;18.07;;
12429;SDS011;6279;42.192;24.326;2022-09-02T04:09:31;23.03;;;17.50;;
12429;SDS011;6279;42.192;24.326;2022-09-02T04:11:57;23.53;;;17.87;;
12429;SDS011;6279;42.192;24.326;2022-09-02T04:14:22;23.63;;;18.10;;
12429;SDS011;6279;42.192;24.326;2022-09-02T04:16:47;25.23;;;19.03;;
12429;SDS011;6279;42.192;24.326;2022-09-02T04:19:13;23.63;;;19.10;;
12429;SDS011;6279;42.192;24.326;2022-09-02T04:21:39;27.30;;;18.17;;
12429;SDS011;6279;42.192;24.326;2022-09-02T04:24:06;23.50;;;18.10;;
12429;SDS011;6279;42.192;24.326;2022-09-02T04:26:33;24.63;;;18.53;;
12429;SDS011;6279;42.192;24.326;2022-09-02T04:28:59;28.17;;;18.30;;
12429;SDS011;6279;42.192;24.326;2022-09-02T04:31:25;25.97;;;17.90;;
12429;SDS011;6279;42.192;24.326;2022-09-02T04:33:52;20.67;;;18.30;;
12429;SDS011;6279;42.192;24.326;2022-09-02T04:36:18;24.33;;;17.90;;
12429;SDS011;6279;42.192;24.326;2022-09-02T04:38:46;23.90;;;17.00;;
12429;SDS011;6279;42.192;24.326;2022-09-02T04:41:13;24.47;;;17.50;;
12429;SDS011;6279;42.192;24.326;2022-09-02T04:43:41;24.83;;;17.00;;
12429;SDS011;6279;42.192;24.326;2022-09-02T04:46:08;19.43;;;17.07;;
12429;SDS011;6279;42.192;24.326;2022-09-02T04:48:36;17.93;;;16.13;;
12429;SDS011;6279;42.192;24.326;2022-09-02T04:51:03;20.23;;;16.33;;
12429;SDS011;6279;42.192;24.326;2022-09-02T04:53:33;26.30;;;17.87;;
12429;SDS011;6279;42.192;24.326;2022-09-02T04:55:59;22.17;;;16.93;;
12429;SDS011;6279;42.192;24.326;2022-09-02T04:58:28;25.57;;;17.73;;
12429;SDS011;6279;42.192;24.326;2022-09-02T05:00:53;21.97;;;17.53;;
12429;SDS011;6279;42.192;24.326;2022-09-02T05:03:18;23.40;;;17.10;;
12429;SDS011;6279;42.192;24.326;2022-09-02T05:05:44;20.13;;;16.57;;
12429;SDS011;6279;42.192;24.326;2022-09-02T05:08:09;27.13;;;17.40;;
12429;SDS011;6279;42.192;24.326;2022-09-02T05:10:38;21.47;;;16.53;;
12429;SDS011;6279;42.192;24.326;2022-09-02T05:13:03;19.27;;;16.50;;
12429;SDS011;6279;42.192;24.326;2022-09-02T05:15:29;28.97;;;17.07;;
12429;SDS011;6279;42.192;24.326;2022-09-02T05:17:55;22.80;;;16.47;;
12429;SDS011;6279;42.192;24.326;2022-09-02T05:20:21;23.40;;;17.10;;
12429;SDS011;6279;42.192;24.326;2022-09-02T05:22:48;19.43;;;17.30;;
12429;SDS011;6279;42.192;24.326;2022-09-02T05:25:14;19.00;;;16.40;;
12429;SDS011;6279;42.192;24.326;2022-09-02T05:27:39;22.83;;;16.43;;
12429;SDS011;6279;42.192;24.326;2022-09-02T05:30:05;19.77;;;16.53;;
12429;SDS011;6279;42.192;24.326;2022-09-02T05:32:31;17.70;;;15.80;;
12429;SDS011;6279;42.192;24.326;2022-09-02T05:34:56;20.33;;;15.43;;
12429;SDS011;6279;42.192;24.326;2022-09-02T05:37:22;20.07;;;14.83;;
12429;SDS011;6279;42.192;24.326;2022-09-02T05:39:48;23.50;;;16.07;;
12429;SDS011;6279;42.192;24.326;2022-09-02T05:42:14;22.00;;;15.57;;
12429;SDS011;6279;42.192;24.326;2022-09-02T05:44:40;22.83;;;15.80;;
12429;SDS011;6279;42.192;24.326;2022-09-02T05:47:09;22.73;;;16.50;;
12429;SDS011;6279;42.192;24.326;2022-09-02T05:49:34;24.73;;;17.43;;
12429;SDS011;6279;42.192;24.326;2022-09-02T05:52:00;20.77;;;16.63;;
12429;SDS011;6279;42.192;24.326;2022-09-02T05:54:27;24.67;;;19.50;;
12429;SDS011;6279;42.192;24.326;2022-09-02T05:56:55;27.07;;;21.43;;
12429;SDS011;6279;42.192;24.326;2022-09-02T05:59:23;34.17;;;25.53;;
12429;SDS011;6279;42.192;24.326;2022-09-02T06:01:51;29.77;;;26.53;;
12429;SDS011;6279;42.192;24.326;2022-09-02T06:04:17;29.00;;;25.93;;
12429;SDS011;6279;42.192;24.326;2022-09-02T06:06:43;27.47;;;20.50;;
12429;SDS011;6279;42.192;24.326;2022-09-02T06:09:10;23.93;;;17.17;;
12429;SDS011;6279;42.192;24.326;2022-09-02T06:11:38;22.83;;;19.47;;
12429;SDS011;6279;42.192;24.326;2022-09-02T06:14:10;23.00;;;17.37;;
12429;SDS011;6279;42.192;24.326;2022-09-02T06:16:38;21.37;;;17.07;;
12429;SDS011;6279;42.192;24.326;2022-09-02T06:19:04;26.17;;;17.00;;
12429;SDS011;6279;42.192;24.326;2022-09-02T06:21:31;22.30;;;15.87;;
12429;SDS011;6279;42.192;24.326;2022-09-02T06:23:57;23.27;;;16.13;;
12429;SDS011;6279;42.192;24.326;2022-09-02T06:26:23;20.03;;;15.73;;
12429;SDS011;6279;42.192;24.326;2022-09-02T06:28:48;19.77;;;15.17;;
12429;SDS011;6279;42.192;24.326;2022-09-02T06:31:15;25.63;;;15.47;;
12429;SDS011;6279;42.192;24.326;2022-09-02T06:33:44;21.93;;;15.87;;
12429;SDS011;6279;42.192;24.326;2022-09-02T06:36:12;18.50;;;14.98;;
12429;SDS011;6279;42.192;24.326;2022-09-02T06:38:42;16.98;;;14.50;;
12429;SDS011;6279;42.192;24.326;2022-09-02T06:41:12;20.77;;;14.33;;
12429;SDS011;6279;42.192;24.326;2022-09-02T06:43:40;25.10;;;14.20;;
12429;SDS011;6279;42.192;24.326;2022-09-02T06:46:05;25.07;;;15.00;;
12429;SDS011;6279;42.192;24.326;2022-09-02T06:48:32;19.55;;;15.23;;
12429;SDS011;6279;42.192;24.326;2022-09-02T06:50:57;19.50;;;14.43;;
12429;SDS011;6279;42.192;24.326;2022-09-02T06:53:23;19.73;;;14.73;;
12429;SDS011;6279;42.192;24.326;2022-09-02T06:55:49;23.90;;;14.95;;
12429;SDS011;6279;42.192;24.326;2022-09-02T06:58:15;19.73;;;13.93;;
12429;SDS011;6279;42.192;24.326;2022-09-02T07:00:41;20.85;;;14.20;;
12429;SDS011;6279;42.192;24.326;2022-09-02T07:03:07;21.02;;;14.77;;
12429;SDS011;6279;42.192;24.326;2022-09-02T07:06:06;17.60;;;14.13;;
12429;SDS011;6279;42.192;24.326;2022-09-02T07:08:34;19.73;;;13.95;;
12429;SDS011;6279;42.192;24.326;2022-09-02T07:11:01;17.20;;;14.68;;
12429;SDS011;6279;42.192;24.326;2022-09-02T07:13:26;18.50;;;14.80;;
12429;SDS011;6279;42.192;24.326;2022-09-02T07:15:51;20.38;;;14.88;;
12429;SDS011;6279;42.192;24.326;2022-09-02T07:18:17;24.52;;;14.13;;
12429;SDS011;6279;42.192;24.326;2022-09-02T07:20:46;17.17;;;13.05;;
12429;SDS011;6279;42.192;24.326;2022-09-02T07:23:12;15.15;;;12.57;;
12429;SDS011;6279;42.192;24.326;2022-09-02T07:25:38;18.05;;;14.15;;
12429;SDS011;6279;42.192;24.326;2022-09-02T07:28:05;23.97;;;21.57;;
12429;SDS011;6279;42.192;24.326;2022-09-02T07:30:30;23.20;;;20.63;;
12429;SDS011;6279;42.192;24.326;2022-09-02T07:32:56;23.10;;;17.43;;
12429;SDS011;6279;42.192;24.326;2022-09-02T07:35:21;22.53;;;18.57;;
12429;SDS011;6279;42.192;24.326;2022-09-02T07:37:47;23.73;;;17.93;;
12429;SDS011;6279;42.192;24.326;2022-09-02T07:40:14;26.03;;;19.93;;
12429;SDS011;6279;42.192;24.326;2022-09-02T07:42:40;21.73;;;19.43;;
12429;SDS011;6279;42.192;24.326;2022-09-02T07:45:06;27.97;;;20.17;;
12429;SDS011;6279;42.192;24.326;2022-09-02T07:47:33;24.60;;;20.87;;
12429;SDS011;6279;42.192;24.326;2022-09-02T07:49:58;31.60;;;21.80;;
12429;SDS011;6279;42.192;24.326;2022-09-02T07:52:24;28.70;;;25.77;;
12429;SDS011;6279;42.192;24.326;2022-09-02T07:54:49;34.73;;;24.40;;
12429;SDS011;6279;42.192;24.326;2022-09-02T07:57:15;28.13;;;24.50;;
12429;SDS011;6279;42.192;24.326;2022-09-02T07:59:41;27.00;;;23.57;;
12429;SDS011;6279;42.192;24.326;2022-09-02T08:02:06;27.20;;;23.37;;
12429;SDS011;6279;42.192;24.326;2022-09-02T08:04:33;28.47;;;25.20;;
12429;SDS011;6279;42.192;24.326;2022-09-02T08:06:58;32.33;;;28.57;;
12429;SDS011;6279;42.192;24.326;2022-09-02T08:09:24;35.37;;;29.67;;
12429;SDS011;6279;42.192;24.326;2022-09-02T08:11:50;36.97;;;30.87;;
12429;SDS011;6279;42.192;24.326;2022-09-02T08:14:18;36.43;;;31.80;;
12429;SDS011;6279;42.192;24.326;2022-09-02T08:16:47;35.53;;;31.73;;
12429;SDS011;6279;42.192;24.326;2022-09-02T08:19:12;36.60;;;31.33;;
12429;SDS011;6279;42.192;24.326;2022-09-02T08:21:39;36.63;;;31.50;;
12429;SDS011;6279;42.192;24.326;2022-09-02T08:24:04;35.43;;;30.20;;
12429;SDS011;6279;42.192;24.326;2022-09-02T08:26:30;33.43;;;29.97;;
12429;SDS011;6279;42.192;24.326;2022-09-02T08:28:56;31.73;;;28.27;;
12429;SDS011;6279;42.192;24.326;2022-09-02T08:31:21;34.17;;;29.73;;
12429;SDS011;6279;42.192;24.326;2022-09-02T08:33:47;33.83;;;28.30;;
12429;SDS011;6279;42.192;24.326;2022-09-02T08:36:12;33.27;;;29.87;;
12429;SDS011;6279;42.192;24.326;2022-09-02T08:38:39;31.37;;;27.57;;
12429;SDS011;6279;42.192;24.326;2022-09-02T08:43:43;29.67;;;25.57;;
12429;SDS011;6279;42.192;24.326;2022-09-02T08:46:11;30.13;;;22.90;;
12429;SDS011;6279;42.192;24.326;2022-09-02T08:48:56;25.47;;;22.37;;
12429;SDS011;6279;42.192;24.326;2022-09-02T08:51:35;32.20;;;24.17;;
12429;SDS011;6279;42.192;24.326;2022-09-02T08:54:07;29.53;;;23.80;;
12429;SDS011;6279;42.192;24.326;2022-09-02T08:56:36;29.37;;;23.13;;
12429;SDS011;6279;42.192;24.326;2022-09-02T08:59:02;24.23;;;21.50;;
12429;SDS011;6279;42.192;24.326;2022-09-02T09:04:02;23.23;;;20.73;;
12429;SDS011;6279;42.192;24.326;2022-09-02T09:11:55;24.73;;;18.03;;
12429;SDS011;6279;42.192;24.326;2022-09-02T09:17:13;23.63;;;18.15;;
12429;SDS011;6279;42.192;24.326;2022-09-02T09:19:49;24.00;;;18.25;;
12429;SDS011;6279;42.192;24.326;2022-09-02T09:22:18;19.92;;;17.83;;
12429;SDS011;6279;42.192;24.326;2022-09-02T09:24:46;20.98;;;15.90;;
12429;SDS011;6279;42.192;24.326;2022-09-02T09:27:15;18.92;;;16.10;;
12429;SDS011;6279;42.192;24.326;2022-09-02T09:29:42;16.40;;;14.80;;
12429;SDS011;6279;42.192;24.326;2022-09-02T09:32:13;17.40;;;15.18;;
12429;SDS011;6279;42.192;24.326;2022-09-02T09:37:29;14.30;;;12.85;;
12429;SDS011;6279;42.192;24.326;2022-09-02T09:39:57;14.38;;;12.80;;
12429;SDS011;6279;42.192;24.326;2022-09-02T09:42:30;14.63;;;12.95;;
12429;SDS011;6279;42.192;24.326;2022-09-02T09:45:10;14.38;;;12.98;;
12429;SDS011;6279;42.192;24.326;2022-09-02T09:47:42;15.63;;;12.55;;
12429;SDS011;6279;42.192;24.326;2022-09-02T09:50:13;15.23;;;12.65;;
12429;SDS011;6279;42.192;24.326;2022-09-02T09:52:40;15.05;;;13.48;;
12429;SDS011;6279;42.192;24.326;2022-09-02T09:55:17;21.60;;;14.82;;
12429;SDS011;6279;42.192;24.326;2022-09-02T09:57:44;20.95;;;15.13;;
12429;SDS011;6279;42.192;24.326;2022-09-02T10:02:51;17.25;;;15.40;;
12429;SDS011;6279;42.192;24.326;2022-09-02T10:07:56;17.10;;;15.30;;
12429;SDS011;6279;42.192;24.326;2022-09-02T10:10:30;18.02;;;15.20;;
12429;SDS011;6279;42.192;24.326;2022-09-02T10:13:14;17.30;;;15.48;;
12429;SDS011;6279;42.192;24.326;2022-09-02T10:15:46;19.00;;;14.63;;
12429;SDS011;6279;42.192;24.326;2022-09-02T10:26:45;16.48;;;14.75;;
12429;SDS011;6279;42.192;24.326;2022-09-02T10:32:08;18.55;;;16.33;;
12429;SDS011;6279;42.192;24.326;2022-09-02T10:37:42;19.85;;;17.08;;
12429;SDS011;6279;42.192;24.326;2022-09-02T10:40:29;21.88;;;17.65;;
12429;SDS011;6279;42.192;24.326;2022-09-02T10:43:09;20.45;;;18.55;;
12429;SDS011;6279;42.192;24.326;2022-09-02T10:45:46;19.60;;;17.45;;
12429;SDS011;6279;42.192;24.326;2022-09-02T10:51:05;22.42;;;19.10;;
12429;SDS011;6279;42.192;24.326;2022-09-02T10:56:18;17.20;;;13.10;;
12429;SDS011;6279;42.192;24.326;2022-09-02T10:58:54;10.20;;;8.13;;
12429;SDS011;6279;42.192;24.326;2022-09-02T11:01:34;7.57;;;6.73;;
12429;SDS011;6279;42.192;24.326;2022-09-02T11:07:04;8.03;;;6.43;;
12429;SDS011;6279;42.192;24.326;2022-09-02T11:12:13;12.13;;;8.60;;
12429;SDS011;6279;42.192;24.326;2022-09-02T11:25:31;14.03;;;11.17;;
12429;SDS011;6279;42.192;24.326;2022-09-02T11:28:21;24.23;;;11.30;;
12429;SDS011;6279;42.192;24.326;2022-09-02T11:30:57;16.77;;;12.97;;
12429;SDS011;6279;42.192;24.326;2022-09-02T11:36:23;13.10;;;11.60;;
12429;SDS011;6279;42.192;24.326;2022-09-02T11:39:03;12.87;;;11.47;;
12429;SDS011;6279;42.192;24.326;2022-09-02T11:41:36;11.27;;;10.13;;
12429;SDS011;6279;42.192;24.326;2022-09-02T11:52:53;13.90;;;12.00;;
12429;SDS011;6279;42.192;24.326;2022-09-02T11:55:46;15.87;;;13.77;;
12429;SDS011;6279;42.192;24.326;2022-09-02T11:58:37;16.97;;;15.27;;
12429;SDS011;6279;42.192;24.326;2022-09-02T12:01:04;17.63;;;15.83;;
12429;SDS011;6279;42.192;24.326;2022-09-02T12:03:43;18.67;;;16.27;;
12429;SDS011;6279;42.192;24.326;2022-09-02T12:06:12;18.23;;;16.53;;
12429;SDS011;6279;42.192;24.326;2022-09-02T12:11:08;18.87;;;15.27;;
12429;SDS011;6279;42.192;24.326;2022-09-02T12:13:54;19.63;;;16.20;;
12429;SDS011;6279;42.192;24.326;2022-09-02T12:21:18;17.13;;;15.53;;
12429;SDS011;6279;42.192;24.326;2022-09-02T12:26:14;15.77;;;14.13;;
12429;SDS011;6279;42.192;24.326;2022-09-02T12:28:41;16.83;;;13.33;;
12429;SDS011;6279;42.192;24.326;2022-09-02T12:31:14;15.93;;;14.30;;
12429;SDS011;6279;42.192;24.326;2022-09-02T12:50:49;14.37;;;12.80;;
12429;SDS011;6279;42.192;24.326;2022-09-02T12:53:07;14.43;;;12.97;;
12429;SDS011;6279;42.192;24.326;2022-09-02T12:56:19;22.50;;;15.30;;
12429;SDS011;6279;42.192;24.326;2022-09-02T13:10:11;15.57;;;13.27;;
12429;SDS011;6279;42.192;24.326;2022-09-02T13:19:20;17.13;;;14.47;;
12429;SDS011;6279;42.192;24.326;2022-09-02T13:21:53;17.23;;;13.47;;
12429;SDS011;6279;42.192;24.326;2022-09-02T13:24:29;13.20;;;12.00;;
12429;SDS011;6279;42.192;24.326;2022-09-02T13:32:43;13.27;;;11.97;;
12429;SDS011;6279;42.192;24.326;2022-09-02T13:35:16;12.93;;;11.13;;
12429;SDS011;6279;42.192;24.326;2022-09-02T13:37:48;13.57;;;11.80;;
12429;SDS011;6279;42.192;24.326;2022-09-02T13:40:27;13.77;;;12.37;;
12429;SDS011;6279;42.192;24.326;2022-09-02T13:42:55;13.43;;;11.93;;
12429;SDS011;6279;42.192;24.326;2022-09-02T13:45:26;12.32;;;11.07;;
12429;SDS011;6279;42.192;24.326;2022-09-02T13:47:56;13.52;;;11.20;;
12429;SDS011;6279;42.192;24.326;2022-09-02T13:50:24;12.60;;;11.18;;
12429;SDS011;6279;42.192;24.326;2022-09-02T13:52:55;11.90;;;10.70;;
12429;SDS011;6279;42.192;24.326;2022-09-02T13:55:23;11.67;;;10.57;;
12429;SDS011;6279;42.192;24.326;2022-09-02T14:00:32;13.40;;;9.80;;
12429;SDS011;6279;42.192;24.326;2022-09-02T14:03:06;11.70;;;10.10;;
12429;SDS011;6279;42.192;24.326;2022-09-02T14:05:34;12.63;;;11.07;;
12429;SDS011;6279;42.192;24.326;2022-09-02T14:08:05;12.30;;;10.97;;
12429;SDS011;6279;42.192;24.326;2022-09-02T14:10:33;12.17;;;10.90;;
12429;SDS011;6279;42.192;24.326;2022-09-02T14:13:01;12.17;;;10.97;;
12429;SDS011;6279;42.192;24.326;2022-09-02T14:15:31;12.80;;;11.50;;
12429;SDS011;6279;42.192;24.326;2022-09-02T14:20:35;14.90;;;13.50;;
12429;SDS011;6279;42.192;24.326;2022-09-02T14:23:05;14.47;;;12.97;;
12429;SDS011;6279;42.192;24.326;2022-09-02T14:25:35;15.07;;;13.63;;
12429;SDS011;6279;42.192;24.326;2022-09-02T14:28:06;14.13;;;12.83;;
12429;SDS011;6279;42.192;24.326;2022-09-02T14:30:38;14.77;;;13.33;;
12429;SDS011;6279;42.192;24.326;2022-09-02T14:38:25;13.57;;;12.17;;
12429;SDS011;6279;42.192;24.326;2022-09-02T14:40:59;14.03;;;12.73;;
12429;SDS011;6279;42.192;24.326;2022-09-02T14:43:26;12.67;;;11.43;;
12429;SDS011;6279;42.192;24.326;2022-09-02T14:46:02;13.03;;;11.67;;
12429;SDS011;6279;42.192;24.326;2022-09-02T14:48:31;13.50;;;11.00;;
12429;SDS011;6279;42.192;24.326;2022-09-02T14:51:03;12.52;;;11.32;;
12429;SDS011;6279;42.192;24.326;2022-09-02T14:53:30;13.07;;;11.88;;
12429;SDS011;6279;42.192;24.326;2022-09-02T14:55:57;15.30;;;11.98;;
12429;SDS011;6279;42.192;24.326;2022-09-02T14:58:24;12.40;;;11.15;;
12429;SDS011;6279;42.192;24.326;2022-09-02T15:00:52;13.50;;;11.48;;
12429;SDS011;6279;42.192;24.326;2022-09-02T15:03:22;11.88;;;10.70;;
12429;SDS011;6279;42.192;24.326;2022-09-02T15:05:49;12.15;;;11.05;;
12429;SDS011;6279;42.192;24.326;2022-09-02T15:08:17;13.00;;;11.80;;
12429;SDS011;6279;42.192;24.326;2022-09-02T15:10:42;12.55;;;11.32;;
12429;SDS011;6279;42.192;24.326;2022-09-02T15:13:13;13.15;;;11.70;;
12429;SDS011;6279;42.192;24.326;2022-09-02T15:15:53;12.75;;;11.45;;
12429;SDS011;6279;42.192;24.326;2022-09-02T15:18:19;13.40;;;12.10;;
12429;SDS011;6279;42.192;24.326;2022-09-02T15:20:45;14.53;;;12.33;;
12429;SDS011;6279;42.192;24.326;2022-09-02T15:23:11;18.20;;;13.00;;
12429;SDS011;6279;42.192;24.326;2022-09-02T15:25:36;17.13;;;12.30;;
12429;SDS011;6279;42.192;24.326;2022-09-02T15:28:01;14.50;;;13.20;;
12429;SDS011;6279;42.192;24.326;2022-09-02T15:30:27;15.50;;;13.83;;
12429;SDS011;6279;42.192;24.326;2022-09-02T15:32:52;15.93;;;13.50;;
12429;SDS011;6279;42.192;24.326;2022-09-02T15:35:18;16.00;;;14.60;;
12429;SDS011;6279;42.192;24.326;2022-09-02T15:37:43;14.37;;;12.97;;
12429;SDS011;6279;42.192;24.326;2022-09-02T15:40:13;16.23;;;14.63;;
12429;SDS011;6279;42.192;24.326;2022-09-02T15:42:38;15.33;;;13.83;;
12429;SDS011;6279;42.192;24.326;2022-09-02T15:45:04;15.53;;;13.70;;
12429;SDS011;6279;42.192;24.326;2022-09-02T15:47:36;17.57;;;15.27;;
12429;SDS011;6279;42.192;24.326;2022-09-02T15:50:05;19.43;;;17.30;;
12429;SDS011;6279;42.192;24.326;2022-09-02T15:52:32;18.00;;;16.10;;
12429;SDS011;6279;42.192;24.326;2022-09-02T15:54:58;27.87;;;21.13;;
12429;SDS011;6279;42.192;24.326;2022-09-02T15:57:23;25.00;;;20.07;;
12429;SDS011;6279;42.192;24.326;2022-09-02T15:59:49;40.93;;;24.00;;
12429;SDS011;6279;42.192;24.326;2022-09-02T16:02:15;31.60;;;23.57;;
12429;SDS011;6279;42.192;24.326;2022-09-02T16:04:41;31.00;;;22.17;;
12429;SDS011;6279;42.192;24.326;2022-09-02T16:07:07;22.10;;;18.27;;
12429;SDS011;6279;42.192;24.326;2022-09-02T16:09:32;18.30;;;16.17;;
12429;SDS011;6279;42.192;24.326;2022-09-02T16:11:58;23.93;;;18.17;;
12429;SDS011;6279;42.192;24.326;2022-09-02T16:14:23;23.27;;;18.70;;
12429;SDS011;6279;42.192;24.326;2022-09-02T16:16:50;25.10;;;18.23;;
12429;SDS011;6279;42.192;24.326;2022-09-02T16:19:21;23.50;;;19.23;;
12429;SDS011;6279;42.192;24.326;2022-09-02T16:21:50;36.90;;;23.43;;
12429;SDS011;6279;42.192;24.326;2022-09-02T16:24:16;39.63;;;26.40;;
12429;SDS011;6279;42.192;24.326;2022-09-02T16:26:44;30.20;;;20.13;;
12429;SDS011;6279;42.192;24.326;2022-09-02T16:29:11;23.30;;;18.80;;
12429;SDS011;6279;42.192;24.326;2022-09-02T16:31:39;18.30;;;16.33;;
12429;SDS011;6279;42.192;24.326;2022-09-02T16:34:06;21.73;;;17.73;;
12429;SDS011;6279;42.192;24.326;2022-09-02T16:36:34;19.80;;;17.40;;
12429;SDS011;6279;42.192;24.326;2022-09-02T16:39:01;21.77;;;15.10;;